sensor_id;sensor_type;location;lat;lon;timestamp;temperature;humidity
2024;DHT22;1016;48.770;9.154;2023-07-16T00:01:13;23.10;99.90
2024;DHT22;1016;48.770;9.154;2023-07-16T00:03:38;23.00;99.90
2024;DHT22;1016;48.770;9.154;2023-07-16T00:06:03;23.10;99.90
2024;DHT22;1016;48.770;9.154;2023-07-16T00:08:29;23.00;99.90
2024;DHT22;1016;48.770;9.154;2023-07-16T00:10:54;23.10;99.90
2024;DHT22;1016;48.770;9.154;2023-07-16T00:13:20;23.00;99.90
2024;DHT22;1016;48.770;9.154;2023-07-16T00:15:45;23.10;99.90
2024;DHT22;1016;48.770;9.154;2023-07-16T00:18:11;23.00;99.90
2024;DHT22;1016;48.770;9.154;2023-07-16T00:20:36;23.00;99.90
2024;DHT22;1016;48.770;9.154;2023-07-16T00:23:01;23.10;99.90
2024;DHT22;1016;48.770;9.154;2023-07-16T00:25:27;23.00;99.90
2024;DHT22;1016;48.770;9.154;2023-07-16T00:27:53;23.00;99.90
2024;DHT22;1016;48.770;9.154;2023-07-16T00:30:18;23.00;99.90
2024;DHT22;1016;48.770;9.154;2023-07-16T00:32:43;23.00;99.90
2024;DHT22;1016;48.770;9.154;2023-07-16T00:35:09;22.90;99.90
2024;DHT22;1016;48.770;9.154;2023-07-16T00:37:34;22.90;99.90
2024;DHT22;1016;48.770;9.154;2023-07-16T00:40:00;22.90;99.90
2024;DHT22;1016;48.770;9.154;2023-07-16T00:42:25;23.00;99.90
2024;DHT22;1016;48.770;9.154;2023-07-16T00:44:51;22.90;99.90
2024;DHT22;1016;48.770;9.154;2023-07-16T00:47:16;22.90;99.90
2024;DHT22;1016;48.770;9.154;2023-07-16T00:49:42;22.90;99.90
2024;DHT22;1016;48.770;9.154;2023-07-16T00:52:08;22.90;99.90
2024;DHT22;1016;48.770;9.154;2023-07-16T00:54:36;22.90;99.90
2024;DHT22;1016;48.770;9.154;2023-07-16T00:57:02;22.90;99.90
2024;DHT22;1016;48.770;9.154;2023-07-16T00:59:27;22.90;99.90
2024;DHT22;1016;48.770;9.154;2023-07-16T01:01:53;23.00;99.90
2024;DHT22;1016;48.770;9.154;2023-07-16T01:04:18;22.80;99.90
2024;DHT22;1016;48.770;9.154;2023-07-16T01:06:45;22.90;99.90
2024;DHT22;1016;48.770;9.154;2023-07-16T01:09:18;22.80;99.90
2024;DHT22;1016;48.770;9.154;2023-07-16T01:11:44;22.80;99.90
2024;DHT22;1016;48.770;9.154;2023-07-16T01:14:10;22.80;99.90
2024;DHT22;1016;48.770;9.154;2023-07-16T01:16:36;22.90;99.90
2024;DHT22;1016;48.770;9.154;2023-07-16T01:19:02;22.90;99.90
2024;DHT22;1016;48.770;9.154;2023-07-16T01:21:29;22.90;99.90
2024;DHT22;1016;48.770;9.154;2023-07-16T01:24:05;22.80;99.90
2024;DHT22;1016;48.770;9.154;2023-07-16T01:26:36;22.70;99.90
2024;DHT22;1016;48.770;9.154;2023-07-16T01:31:46;22.80;99.90
2024;DHT22;1016;48.770;9.154;2023-07-16T01:34:11;22.80;99.90
2024;DHT22;1016;48.770;9.154;2023-07-16T01:36:37;22.80;99.90
2024;DHT22;1016;48.770;9.154;2023-07-16T01:39:04;22.70;99.90
2024;DHT22;1016;48.770;9.154;2023-07-16T01:41:30;22.80;99.90
2024;DHT22;1016;48.770;9.154;2023-07-16T01:43:56;22.60;99.90
2024;DHT22;1016;48.770;9.154;2023-07-16T01:46:21;22.60;99.90
2024;DHT22;1016;48.770;9.154;2023-07-16T01:48:46;22.60;99.90
2024;DHT22;1016;48.770;9.154;2023-07-16T01:51:12;22.60;99.90
2024;DHT22;1016;48.770;9.154;2023-07-16T01:53:39;22.80;99.90
2024;DHT22;1016;48.770;9.154;2023-07-16T01:56:05;22.60;99.90
2024;DHT22;1016;48.770;9.154;2023-07-16T01:58:30;22.70;99.90
2024;DHT22;1016;48.770;9.154;2023-07-16T02:00:56;22.50;99.90
2024;DHT22;1016;48.770;9.154;2023-07-16T02:03:21;22.50;99.90
2024;DHT22;1016;48.770;9.154;2023-07-16T02:05:47;22.50;99.90
2024;DHT22;1016;48.770;9.154;2023-07-16T02:08:13;22.50;99.90
2024;DHT22;1016;48.770;9.154;2023-07-16T02:10:38;22.40;99.90
2024;DHT22;1016;48.770;9.154;2023-07-16T02:13:04;22.60;99.90
2024;DHT22;1016;48.770;9.154;2023-07-16T02:15:29;22.50;99.90
2024;DHT22;1016;48.770;9.154;2023-07-16T02:17:55;22.50;99.90
2024;DHT22;1016;48.770;9.154;2023-07-16T02:20:20;22.30;99.90
2024;DHT22;1016;48.770;9.154;2023-07-16T02:22:45;22.30;99.90
2024;DHT22;1016;48.770;9.154;2023-07-16T02:25:11;22.30;99.90
2024;DHT22;1016;48.770;9.154;2023-07-16T02:27:36;22.20;99.90
2024;DHT22;1016;48.770;9.154;2023-07-16T02:30:02;22.20;99.90
2024;DHT22;1016;48.770;9.154;2023-07-16T02:32:27;22.20;99.90
2024;DHT22;1016;48.770;9.154;2023-07-16T02:34:53;22.20;99.90
2024;DHT22;1016;48.770;9.154;2023-07-16T02:37:18;22.30;99.90
2024;DHT22;1016;48.770;9.154;2023-07-16T02:39:44;22.10;99.90
2024;DHT22;1016;48.770;9.154;2023-07-16T02:42:10;22.10;99.90
2024;DHT22;1016;48.770;9.154;2023-07-16T02:44:35;22.10;99.90
2024;DHT22;1016;48.770;9.154;2023-07-16T02:47:07;22.10;99.90
2024;DHT22;1016;48.770;9.154;2023-07-16T02:49:32;22.10;99.90
2024;DHT22;1016;48.770;9.154;2023-07-16T02:51:58;22.00;99.90
2024;DHT22;1016;48.770;9.154;2023-07-16T02:54:23;22.00;99.90
2024;DHT22;1016;48.770;9.154;2023-07-16T02:56:48;22.00;99.90
2024;DHT22;1016;48.770;9.154;2023-07-16T02:59:14;21.90;99.90
2024;DHT22;1016;48.770;9.154;2023-07-16T03:01:39;21.90;99.90
2024;DHT22;1016;48.770;9.154;2023-07-16T03:04:05;22.00;99.90
2024;DHT22;1016;48.770;9.154;2023-07-16T03:06:30;21.90;99.90
2024;DHT22;1016;48.770;9.154;2023-07-16T03:08:56;21.90;99.90
2024;DHT22;1016;48.770;9.154;2023-07-16T03:11:22;21.90;99.90
2024;DHT22;1016;48.770;9.154;2023-07-16T03:13:47;21.80;99.90
2024;DHT22;1016;48.770;9.154;2023-07-16T03:16:12;21.90;99.90
2024;DHT22;1016;48.770;9.154;2023-07-16T03:18:38;21.80;99.90
2024;DHT22;1016;48.770;9.154;2023-07-16T03:21:03;21.70;99.90
2024;DHT22;1016;48.770;9.154;2023-07-16T03:23:29;21.70;99.90
2024;DHT22;1016;48.770;9.154;2023-07-16T03:25:54;21.70;99.90
2024;DHT22;1016;48.770;9.154;2023-07-16T03:28:20;21.80;99.90
2024;DHT22;1016;48.770;9.154;2023-07-16T03:30:46;21.80;99.90
2024;DHT22;1016;48.770;9.154;2023-07-16T03:33:11;21.70;99.90
2024;DHT22;1016;48.770;9.154;2023-07-16T03:35:37;21.70;99.90
2024;DHT22;1016;48.770;9.154;2023-07-16T03:38:02;21.90;99.90
2024;DHT22;1016;48.770;9.154;2023-07-16T03:40:28;21.80;99.90
2024;DHT22;1016;48.770;9.154;2023-07-16T03:42:53;21.60;99.90
2024;DHT22;1016;48.770;9.154;2023-07-16T03:45:19;21.70;99.90
2024;DHT22;1016;48.770;9.154;2023-07-16T03:47:45;21.70;99.90
2024;DHT22;1016;48.770;9.154;2023-07-16T03:50:10;21.70;99.90
2024;DHT22;1016;48.770;9.154;2023-07-16T03:52:35;21.60;99.90
2024;DHT22;1016;48.770;9.154;2023-07-16T03:55:01;21.60;99.90
2024;DHT22;1016;48.770;9.154;2023-07-16T03:57:27;21.60;99.90
2024;DHT22;1016;48.770;9.154;2023-07-16T03:59:53;21.60;99.90
2024;DHT22;1016;48.770;9.154;2023-07-16T04:02:18;21.50;99.90
2024;DHT22;1016;48.770;9.154;2023-07-16T04:04:44;21.50;99.90
2024;DHT22;1016;48.770;9.154;2023-07-16T04:07:09;21.50;99.90
2024;DHT22;1016;48.770;9.154;2023-07-16T04:09:37;21.50;99.90
2024;DHT22;1016;48.770;9.154;2023-07-16T04:12:02;21.60;99.90
2024;DHT22;1016;48.770;9.154;2023-07-16T04:14:27;21.50;99.90
2024;DHT22;1016;48.770;9.154;2023-07-16T04:16:53;21.50;99.90
2024;DHT22;1016;48.770;9.154;2023-07-16T04:19:18;21.50;99.90
2024;DHT22;1016;48.770;9.154;2023-07-16T04:21:44;21.50;99.90
2024;DHT22;1016;48.770;9.154;2023-07-16T04:24:09;21.50;99.90
2024;DHT22;1016;48.770;9.154;2023-07-16T04:26:35;21.50;99.90
2024;DHT22;1016;48.770;9.154;2023-07-16T04:29:00;21.50;99.90
2024;DHT22;1016;48.770;9.154;2023-07-16T04:31:26;21.50;99.90
2024;DHT22;1016;48.770;9.154;2023-07-16T04:33:51;21.50;99.90
2024;DHT22;1016;48.770;9.154;2023-07-16T04:36:17;21.50;99.90
2024;DHT22;1016;48.770;9.154;2023-07-16T04:38:42;21.60;99.90
2024;DHT22;1016;48.770;9.154;2023-07-16T04:41:07;21.50;99.90
2024;DHT22;1016;48.770;9.154;2023-07-16T04:43:33;21.50;99.90
2024;DHT22;1016;48.770;9.154;2023-07-16T04:45:58;21.50;99.90
2024;DHT22;1016;48.770;9.154;2023-07-16T04:48:24;21.50;99.90
2024;DHT22;1016;48.770;9.154;2023-07-16T04:50:50;21.50;99.90
2024;DHT22;1016;48.770;9.154;2023-07-16T04:53:16;21.50;99.90
2024;DHT22;1016;48.770;9.154;2023-07-16T04:55:43;21.50;99.90
2024;DHT22;1016;48.770;9.154;2023-07-16T04:58:10;21.60;99.90
2024;DHT22;1016;48.770;9.154;2023-07-16T05:00:36;21.50;99.90
2024;DHT22;1016;48.770;9.154;2023-07-16T05:03:01;21.50;99.90
2024;DHT22;1016;48.770;9.154;2023-07-16T05:05:27;21.40;99.90
2024;DHT22;1016;48.770;9.154;2023-07-16T05:07:52;21.40;99.90
2024;DHT22;1016;48.770;9.154;2023-07-16T05:10:18;21.40;99.90
2024;DHT22;1016;48.770;9.154;2023-07-16T05:12:43;21.50;99.90
2024;DHT22;1016;48.770;9.154;2023-07-16T05:15:09;21.40;99.90
2024;DHT22;1016;48.770;9.154;2023-07-16T05:17:34;21.50;99.90
2024;DHT22;1016;48.770;9.154;2023-07-16T05:20:00;21.40;99.90
2024;DHT22;1016;48.770;9.154;2023-07-16T05:22:25;21.40;99.90
2024;DHT22;1016;48.770;9.154;2023-07-16T05:24:50;21.40;99.90
2024;DHT22;1016;48.770;9.154;2023-07-16T05:27:16;21.40;99.90
2024;DHT22;1016;48.770;9.154;2023-07-16T05:29:41;21.50;99.90
2024;DHT22;1016;48.770;9.154;2023-07-16T05:32:07;21.40;99.90
2024;DHT22;1016;48.770;9.154;2023-07-16T05:34:33;21.50;99.90
2024;DHT22;1016;48.770;9.154;2023-07-16T05:36:58;21.50;99.90
2024;DHT22;1016;48.770;9.154;2023-07-16T05:39:24;21.50;99.90
2024;DHT22;1016;48.770;9.154;2023-07-16T05:41:49;21.60;99.90
2024;DHT22;1016;48.770;9.154;2023-07-16T05:44:15;21.50;99.90
2024;DHT22;1016;48.770;9.154;2023-07-16T05:46:40;21.60;99.90
2024;DHT22;1016;48.770;9.154;2023-07-16T05:49:06;21.60;99.90
2024;DHT22;1016;48.770;9.154;2023-07-16T05:51:32;21.60;99.90
2024;DHT22;1016;48.770;9.154;2023-07-16T05:53:57;21.50;99.90
2024;DHT22;1016;48.770;9.154;2023-07-16T05:56:23;21.60;99.90
2024;DHT22;1016;48.770;9.154;2023-07-16T05:58:48;21.60;99.90
2024;DHT22;1016;48.770;9.154;2023-07-16T06:01:14;21.80;99.90
2024;DHT22;1016;48.770;9.154;2023-07-16T06:03:39;21.80;99.90
2024;DHT22;1016;48.770;9.154;2023-07-16T06:06:04;21.70;99.90
2024;DHT22;1016;48.770;9.154;2023-07-16T06:08:30;21.70;99.90
2024;DHT22;1016;48.770;9.154;2023-07-16T06:10:55;21.70;99.90
2024;DHT22;1016;48.770;9.154;2023-07-16T06:13:21;21.90;99.90
2024;DHT22;1016;48.770;9.154;2023-07-16T06:15:47;21.80;99.90
2024;DHT22;1016;48.770;9.154;2023-07-16T06:18:12;21.80;99.90
2024;DHT22;1016;48.770;9.154;2023-07-16T06:20:38;21.80;99.90
2024;DHT22;1016;48.770;9.154;2023-07-16T06:23:03;21.70;99.90
2024;DHT22;1016;48.770;9.154;2023-07-16T06:25:29;21.70;99.90
2024;DHT22;1016;48.770;9.154;2023-07-16T06:27:54;21.80;99.90
2024;DHT22;1016;48.770;9.154;2023-07-16T06:30:20;21.70;99.90
2024;DHT22;1016;48.770;9.154;2023-07-16T06:32:45;21.90;99.90
2024;DHT22;1016;48.770;9.154;2023-07-16T06:35:11;21.70;99.90
2024;DHT22;1016;48.770;9.154;2023-07-16T06:37:36;21.70;99.90
2024;DHT22;1016;48.770;9.154;2023-07-16T06:40:02;21.70;99.90
2024;DHT22;1016;48.770;9.154;2023-07-16T06:42:29;21.70;99.90
2024;DHT22;1016;48.770;9.154;2023-07-16T06:44:54;21.70;99.90
2024;DHT22;1016;48.770;9.154;2023-07-16T06:47:19;21.80;99.90
2024;DHT22;1016;48.770;9.154;2023-07-16T06:49:45;21.70;99.90
2024;DHT22;1016;48.770;9.154;2023-07-16T06:52:23;21.80;99.90
2024;DHT22;1016;48.770;9.154;2023-07-16T06:54:49;21.70;99.90
2024;DHT22;1016;48.770;9.154;2023-07-16T06:57:15;21.70;99.90
2024;DHT22;1016;48.770;9.154;2023-07-16T06:59:40;21.80;99.90
2024;DHT22;1016;48.770;9.154;2023-07-16T07:02:06;21.70;99.90
2024;DHT22;1016;48.770;9.154;2023-07-16T07:04:31;21.70;99.90
2024;DHT22;1016;48.770;9.154;2023-07-16T07:06:57;21.90;99.90
2024;DHT22;1016;48.770;9.154;2023-07-16T07:09:22;21.80;99.90
2024;DHT22;1016;48.770;9.154;2023-07-16T07:11:48;21.90;99.90
2024;DHT22;1016;48.770;9.154;2023-07-16T07:14:13;22.00;99.90
2024;DHT22;1016;48.770;9.154;2023-07-16T07:16:39;21.90;99.90
2024;DHT22;1016;48.770;9.154;2023-07-16T07:19:05;22.00;99.90
2024;DHT22;1016;48.770;9.154;2023-07-16T07:21:31;21.90;99.90
2024;DHT22;1016;48.770;9.154;2023-07-16T07:23:56;22.10;99.90
2024;DHT22;1016;48.770;9.154;2023-07-16T07:26:21;22.00;99.90
2024;DHT22;1016;48.770;9.154;2023-07-16T07:28:47;22.00;99.90
2024;DHT22;1016;48.770;9.154;2023-07-16T07:31:13;22.00;99.90
2024;DHT22;1016;48.770;9.154;2023-07-16T07:33:38;22.00;99.90
2024;DHT22;1016;48.770;9.154;2023-07-16T07:36:04;22.10;99.90
2024;DHT22;1016;48.770;9.154;2023-07-16T07:38:29;22.00;99.90
2024;DHT22;1016;48.770;9.154;2023-07-16T07:40:55;22.00;99.90
2024;DHT22;1016;48.770;9.154;2023-07-16T07:43:20;22.00;99.90
2024;DHT22;1016;48.770;9.154;2023-07-16T07:45:46;22.00;99.90
2024;DHT22;1016;48.770;9.154;2023-07-16T07:48:11;22.10;99.90
2024;DHT22;1016;48.770;9.154;2023-07-16T07:50:37;21.90;99.90
2024;DHT22;1016;48.770;9.154;2023-07-16T07:53:02;21.90;99.90
2024;DHT22;1016;48.770;9.154;2023-07-16T07:55:27;21.90;99.90
2024;DHT22;1016;48.770;9.154;2023-07-16T07:57:53;21.90;99.90
2024;DHT22;1016;48.770;9.154;2023-07-16T08:00:19;22.10;99.90
2024;DHT22;1016;48.770;9.154;2023-07-16T08:02:44;22.00;99.90
2024;DHT22;1016;48.770;9.154;2023-07-16T08:05:10;22.10;99.90
2024;DHT22;1016;48.770;9.154;2023-07-16T08:07:36;22.10;99.90
2024;DHT22;1016;48.770;9.154;2023-07-16T08:10:01;22.10;99.90
2024;DHT22;1016;48.770;9.154;2023-07-16T08:12:26;22.10;99.90
2024;DHT22;1016;48.770;9.154;2023-07-16T08:14:52;22.20;99.90
2024;DHT22;1016;48.770;9.154;2023-07-16T08:17:18;22.30;99.90
2024;DHT22;1016;48.770;9.154;2023-07-16T08:19:43;22.20;99.90
2024;DHT22;1016;48.770;9.154;2023-07-16T08:22:08;22.30;99.90
2024;DHT22;1016;48.770;9.154;2023-07-16T08:24:34;22.30;99.90
2024;DHT22;1016;48.770;9.154;2023-07-16T08:26:59;22.40;99.90
2024;DHT22;1016;48.770;9.154;2023-07-16T08:29:25;22.30;99.90
2024;DHT22;1016;48.770;9.154;2023-07-16T08:31:50;22.30;99.90
2024;DHT22;1016;48.770;9.154;2023-07-16T08:34:16;22.40;99.90
2024;DHT22;1016;48.770;9.154;2023-07-16T08:36:41;22.40;99.90
2024;DHT22;1016;48.770;9.154;2023-07-16T08:39:09;22.30;99.90
2024;DHT22;1016;48.770;9.154;2023-07-16T08:41:34;22.30;99.90
2024;DHT22;1016;48.770;9.154;2023-07-16T08:44:00;22.30;99.90
2024;DHT22;1016;48.770;9.154;2023-07-16T08:46:25;22.40;99.90
2024;DHT22;1016;48.770;9.154;2023-07-16T08:48:51;22.50;99.90
2024;DHT22;1016;48.770;9.154;2023-07-16T08:51:17;22.50;99.90
2024;DHT22;1016;48.770;9.154;2023-07-16T08:53:42;22.50;99.90
2024;DHT22;1016;48.770;9.154;2023-07-16T08:56:08;22.60;99.90
2024;DHT22;1016;48.770;9.154;2023-07-16T08:58:34;22.50;99.90
2024;DHT22;1016;48.770;9.154;2023-07-16T09:01:00;22.70;99.90
2024;DHT22;1016;48.770;9.154;2023-07-16T09:03:26;22.60;99.90
2024;DHT22;1016;48.770;9.154;2023-07-16T09:05:51;22.70;99.90
2024;DHT22;1016;48.770;9.154;2023-07-16T09:08:18;22.80;99.90
2024;DHT22;1016;48.770;9.154;2023-07-16T09:10:43;22.80;99.90
2024;DHT22;1016;48.770;9.154;2023-07-16T09:13:10;22.80;99.90
2024;DHT22;1016;48.770;9.154;2023-07-16T09:15:36;23.00;99.90
2024;DHT22;1016;48.770;9.154;2023-07-16T09:18:02;22.90;99.90
2024;DHT22;1016;48.770;9.154;2023-07-16T09:20:29;22.90;99.90
2024;DHT22;1016;48.770;9.154;2023-07-16T09:22:56;23.00;99.90
2024;DHT22;1016;48.770;9.154;2023-07-16T09:25:25;23.00;99.90
2024;DHT22;1016;48.770;9.154;2023-07-16T09:27:51;23.00;99.90
2024;DHT22;1016;48.770;9.154;2023-07-16T09:30:16;23.00;99.90
2024;DHT22;1016;48.770;9.154;2023-07-16T09:32:42;23.00;99.90
2024;DHT22;1016;48.770;9.154;2023-07-16T09:35:10;23.10;99.90
2024;DHT22;1016;48.770;9.154;2023-07-16T09:37:39;23.00;99.90
2024;DHT22;1016;48.770;9.154;2023-07-16T09:40:06;23.00;99.90
2024;DHT22;1016;48.770;9.154;2023-07-16T09:42:35;23.00;99.90
2024;DHT22;1016;48.770;9.154;2023-07-16T09:45:02;23.00;99.90
2024;DHT22;1016;48.770;9.154;2023-07-16T09:47:27;23.00;99.90
2024;DHT22;1016;48.770;9.154;2023-07-16T09:49:53;23.10;99.90
2024;DHT22;1016;48.770;9.154;2023-07-16T09:52:18;23.00;99.90
2024;DHT22;1016;48.770;9.154;2023-07-16T09:54:45;23.10;99.90
2024;DHT22;1016;48.770;9.154;2023-07-16T09:57:11;23.10;99.90
2024;DHT22;1016;48.770;9.154;2023-07-16T09:59:38;23.20;99.90
2024;DHT22;1016;48.770;9.154;2023-07-16T10:02:04;23.30;99.90
2024;DHT22;1016;48.770;9.154;2023-07-16T10:04:38;23.20;99.90
2024;DHT22;1016;48.770;9.154;2023-07-16T10:07:17;23.30;99.90
2024;DHT22;1016;48.770;9.154;2023-07-16T10:09:56;23.30;99.90
2024;DHT22;1016;48.770;9.154;2023-07-16T10:12:25;23.40;99.90
2024;DHT22;1016;48.770;9.154;2023-07-16T10:14:51;23.40;99.90
2024;DHT22;1016;48.770;9.154;2023-07-16T10:17:18;23.40;99.90
2024;DHT22;1016;48.770;9.154;2023-07-16T10:19:51;23.30;99.90
2024;DHT22;1016;48.770;9.154;2023-07-16T10:22:17;23.50;99.90
2024;DHT22;1016;48.770;9.154;2023-07-16T10:24:43;23.60;99.90
2024;DHT22;1016;48.770;9.154;2023-07-16T10:27:09;23.60;99.90
2024;DHT22;1016;48.770;9.154;2023-07-16T10:29:34;23.60;99.90
2024;DHT22;1016;48.770;9.154;2023-07-16T10:32:01;23.60;99.90
2024;DHT22;1016;48.770;9.154;2023-07-16T10:34:27;23.60;99.90
2024;DHT22;1016;48.770;9.154;2023-07-16T10:36:53;23.70;99.90
2024;DHT22;1016;48.770;9.154;2023-07-16T10:39:18;23.70;99.90
2024;DHT22;1016;48.770;9.154;2023-07-16T10:41:44;23.80;99.90
2024;DHT22;1016;48.770;9.154;2023-07-16T10:44:11;23.90;99.90
2024;DHT22;1016;48.770;9.154;2023-07-16T10:46:37;23.80;99.90
2024;DHT22;1016;48.770;9.154;2023-07-16T10:49:02;23.90;99.90
2024;DHT22;1016;48.770;9.154;2023-07-16T10:51:28;24.00;99.90
2024;DHT22;1016;48.770;9.154;2023-07-16T10:53:56;23.90;99.90
2024;DHT22;1016;48.770;9.154;2023-07-16T10:56:22;24.00;99.90
2024;DHT22;1016;48.770;9.154;2023-07-16T10:58:47;24.00;99.90
2024;DHT22;1016;48.770;9.154;2023-07-16T11:01:14;24.10;99.90
2024;DHT22;1016;48.770;9.154;2023-07-16T11:03:39;24.00;99.90
2024;DHT22;1016;48.770;9.154;2023-07-16T11:06:05;24.00;99.90
2024;DHT22;1016;48.770;9.154;2023-07-16T11:08:31;24.00;99.90
2024;DHT22;1016;48.770;9.154;2023-07-16T11:10:56;24.00;99.90
2024;DHT22;1016;48.770;9.154;2023-07-16T11:13:28;24.00;99.90
2024;DHT22;1016;48.770;9.154;2023-07-16T11:15:54;24.00;99.90
2024;DHT22;1016;48.770;9.154;2023-07-16T11:18:22;24.00;99.90
2024;DHT22;1016;48.770;9.154;2023-07-16T11:20:50;24.00;99.90
2024;DHT22;1016;48.770;9.154;2023-07-16T11:23:15;24.00;99.90
2024;DHT22;1016;48.770;9.154;2023-07-16T11:25:45;24.00;99.90
2024;DHT22;1016;48.770;9.154;2023-07-16T11:28:10;24.10;99.90
2024;DHT22;1016;48.770;9.154;2023-07-16T11:30:36;24.00;99.90
2024;DHT22;1016;48.770;9.154;2023-07-16T11:33:02;24.10;99.90
2024;DHT22;1016;48.770;9.154;2023-07-16T11:35:27;24.10;99.90
2024;DHT22;1016;48.770;9.154;2023-07-16T11:37:54;24.10;99.90
2024;DHT22;1016;48.770;9.154;2023-07-16T11:40:19;24.30;99.90
2024;DHT22;1016;48.770;9.154;2023-07-16T11:42:45;24.20;99.90
2024;DHT22;1016;48.770;9.154;2023-07-16T11:45:17;24.20;99.90
2024;DHT22;1016;48.770;9.154;2023-07-16T11:47:43;24.30;99.90
2024;DHT22;1016;48.770;9.154;2023-07-16T11:50:09;24.40;99.90
2024;DHT22;1016;48.770;9.154;2023-07-16T11:52:34;24.40;99.90
2024;DHT22;1016;48.770;9.154;2023-07-16T11:55:00;24.40;99.90
2024;DHT22;1016;48.770;9.154;2023-07-16T11:57:25;24.50;99.90
2024;DHT22;1016;48.770;9.154;2023-07-16T11:59:51;24.60;99.90
2024;DHT22;1016;48.770;9.154;2023-07-16T12:02:16;24.50;99.90
2024;DHT22;1016;48.770;9.154;2023-07-16T12:04:42;24.60;99.90
2024;DHT22;1016;48.770;9.154;2023-07-16T12:07:07;24.60;99.90
2024;DHT22;1016;48.770;9.154;2023-07-16T12:09:33;24.60;99.90
2024;DHT22;1016;48.770;9.154;2023-07-16T12:11:59;24.70;99.90
2024;DHT22;1016;48.770;9.154;2023-07-16T12:14:24;24.70;99.90
2024;DHT22;1016;48.770;9.154;2023-07-16T12:16:50;24.70;99.90
2024;DHT22;1016;48.770;9.154;2023-07-16T12:19:15;24.80;99.90
2024;DHT22;1016;48.770;9.154;2023-07-16T12:21:41;24.80;99.90
2024;DHT22;1016;48.770;9.154;2023-07-16T12:24:06;24.80;99.90
2024;DHT22;1016;48.770;9.154;2023-07-16T12:26:31;24.90;99.90
2024;DHT22;1016;48.770;9.154;2023-07-16T12:28:57;24.90;99.90
2024;DHT22;1016;48.770;9.154;2023-07-16T12:31:22;25.00;99.90
2024;DHT22;1016;48.770;9.154;2023-07-16T12:33:48;25.00;99.90
2024;DHT22;1016;48.770;9.154;2023-07-16T12:36:14;25.00;99.90
2024;DHT22;1016;48.770;9.154;2023-07-16T12:38:39;25.10;99.90
2024;DHT22;1016;48.770;9.154;2023-07-16T12:41:05;25.10;99.90
2024;DHT22;1016;48.770;9.154;2023-07-16T12:43:30;25.10;99.90
2024;DHT22;1016;48.770;9.154;2023-07-16T12:46:02;25.10;99.90
2024;DHT22;1016;48.770;9.154;2023-07-16T12:48:31;25.20;99.90
2024;DHT22;1016;48.770;9.154;2023-07-16T12:50:56;25.20;99.90
2024;DHT22;1016;48.770;9.154;2023-07-16T12:53:22;25.20;99.90
2024;DHT22;1016;48.770;9.154;2023-07-16T12:55:48;25.30;99.90
2024;DHT22;1016;48.770;9.154;2023-07-16T12:58:13;25.20;99.90
2024;DHT22;1016;48.770;9.154;2023-07-16T13:00:38;25.20;99.90
2024;DHT22;1016;48.770;9.154;2023-07-16T13:03:04;25.20;99.90
2024;DHT22;1016;48.770;9.154;2023-07-16T13:05:30;25.20;99.90
2024;DHT22;1016;48.770;9.154;2023-07-16T13:07:56;25.20;99.90
2024;DHT22;1016;48.770;9.154;2023-07-16T13:10:22;25.20;99.90
2024;DHT22;1016;48.770;9.154;2023-07-16T13:12:47;25.20;99.90
2024;DHT22;1016;48.770;9.154;2023-07-16T13:15:12;25.20;99.90
2024;DHT22;1016;48.770;9.154;2023-07-16T13:17:38;25.20;99.90
2024;DHT22;1016;48.770;9.154;2023-07-16T13:20:04;25.20;99.90
2024;DHT22;1016;48.770;9.154;2023-07-16T13:22:30;25.20;99.90
2024;DHT22;1016;48.770;9.154;2023-07-16T13:24:55;25.40;99.90
2024;DHT22;1016;48.770;9.154;2023-07-16T13:27:22;25.30;99.90
2024;DHT22;1016;48.770;9.154;2023-07-16T13:29:47;25.30;99.90
2024;DHT22;1016;48.770;9.154;2023-07-16T13:32:13;25.40;99.90
2024;DHT22;1016;48.770;9.154;2023-07-16T13:34:38;25.40;99.90
2024;DHT22;1016;48.770;9.154;2023-07-16T13:37:04;25.50;99.90
2024;DHT22;1016;48.770;9.154;2023-07-16T13:39:29;25.50;99.90
2024;DHT22;1016;48.770;9.154;2023-07-16T13:41:54;25.60;99.90
2024;DHT22;1016;48.770;9.154;2023-07-16T13:44:20;25.60;99.90
2024;DHT22;1016;48.770;9.154;2023-07-16T13:46:46;25.70;99.90
2024;DHT22;1016;48.770;9.154;2023-07-16T13:49:11;25.80;99.90
2024;DHT22;1016;48.770;9.154;2023-07-16T13:51:37;25.80;99.90
2024;DHT22;1016;48.770;9.154;2023-07-16T13:54:03;25.90;99.90
2024;DHT22;1016;48.770;9.154;2023-07-16T13:56:28;25.90;99.90
2024;DHT22;1016;48.770;9.154;2023-07-16T13:58:53;25.90;99.90
2024;DHT22;1016;48.770;9.154;2023-07-16T14:01:19;25.80;99.90
2024;DHT22;1016;48.770;9.154;2023-07-16T14:03:44;25.80;99.90
2024;DHT22;1016;48.770;9.154;2023-07-16T14:06:10;25.80;99.90
2024;DHT22;1016;48.770;9.154;2023-07-16T14:08:35;25.90;99.90
2024;DHT22;1016;48.770;9.154;2023-07-16T14:11:01;25.70;99.90
2024;DHT22;1016;48.770;9.154;2023-07-16T14:13:28;25.70;99.90
2024;DHT22;1016;48.770;9.154;2023-07-16T14:15:53;25.70;99.90
2024;DHT22;1016;48.770;9.154;2023-07-16T14:18:19;25.80;99.90
2024;DHT22;1016;48.770;9.154;2023-07-16T14:20:44;25.80;99.90
2024;DHT22;1016;48.770;9.154;2023-07-16T14:23:10;25.70;99.90
2024;DHT22;1016;48.770;9.154;2023-07-16T14:25:35;25.70;99.90
2024;DHT22;1016;48.770;9.154;2023-07-16T14:28:00;25.60;99.90
2024;DHT22;1016;48.770;9.154;2023-07-16T14:30:26;25.70;99.90
2024;DHT22;1016;48.770;9.154;2023-07-16T14:32:51;25.60;99.90
2024;DHT22;1016;48.770;9.154;2023-07-16T14:35:17;25.60;99.90
2024;DHT22;1016;48.770;9.154;2023-07-16T14:37:42;25.60;99.90
2024;DHT22;1016;48.770;9.154;2023-07-16T14:40:09;25.60;99.90
2024;DHT22;1016;48.770;9.154;2023-07-16T14:42:34;25.60;99.90
2024;DHT22;1016;48.770;9.154;2023-07-16T14:45:00;25.60;99.90
2024;DHT22;1016;48.770;9.154;2023-07-16T14:47:25;25.50;99.90
2024;DHT22;1016;48.770;9.154;2023-07-16T14:49:51;25.70;99.90
2024;DHT22;1016;48.770;9.154;2023-07-16T14:52:17;25.50;99.90
2024;DHT22;1016;48.770;9.154;2023-07-16T14:54:43;25.50;99.90
2024;DHT22;1016;48.770;9.154;2023-07-16T14:57:08;25.50;99.90
2024;DHT22;1016;48.770;9.154;2023-07-16T14:59:33;25.50;99.90
2024;DHT22;1016;48.770;9.154;2023-07-16T15:01:59;25.50;99.90
2024;DHT22;1016;48.770;9.154;2023-07-16T15:04:25;25.50;99.90
2024;DHT22;1016;48.770;9.154;2023-07-16T15:06:50;25.40;99.90
2024;DHT22;1016;48.770;9.154;2023-07-16T15:09:16;25.40;99.90
2024;DHT22;1016;48.770;9.154;2023-07-16T15:11:41;25.40;99.90
2024;DHT22;1016;48.770;9.154;2023-07-16T15:14:07;25.40;99.90
2024;DHT22;1016;48.770;9.154;2023-07-16T15:16:33;25.30;99.90
2024;DHT22;1016;48.770;9.154;2023-07-16T15:18:59;25.30;99.90
2024;DHT22;1016;48.770;9.154;2023-07-16T15:21:25;25.40;99.90
2024;DHT22;1016;48.770;9.154;2023-07-16T15:23:50;25.30;99.90
2024;DHT22;1016;48.770;9.154;2023-07-16T15:26:16;25.30;99.90
2024;DHT22;1016;48.770;9.154;2023-07-16T15:28:42;25.50;99.90
2024;DHT22;1016;48.770;9.154;2023-07-16T15:31:08;25.90;99.90
2024;DHT22;1016;48.770;9.154;2023-07-16T15:33:34;26.30;99.90
2024;DHT22;1016;48.770;9.154;2023-07-16T15:35:59;26.30;99.90
2024;DHT22;1016;48.770;9.154;2023-07-16T15:38:25;26.20;99.90
2024;DHT22;1016;48.770;9.154;2023-07-16T15:40:51;26.20;99.90
2024;DHT22;1016;48.770;9.154;2023-07-16T15:43:17;26.60;99.90
2024;DHT22;1016;48.770;9.154;2023-07-16T15:45:42;26.60;99.90
2024;DHT22;1016;48.770;9.154;2023-07-16T15:48:08;26.50;99.80
2024;DHT22;1016;48.770;9.154;2023-07-16T15:50:33;26.40;99.80
2024;DHT22;1016;48.770;9.154;2023-07-16T15:52:59;26.20;99.90
2024;DHT22;1016;48.770;9.154;2023-07-16T15:55:26;26.10;99.90